Time;durP1;ratioP1;P1;durP2;ratioP2;P2;SDS_P1;SDS_P2;PMS_P1;PMS_P2;Temp;Humidity;BMP_temperature;BMP_pressure;BME280_temperature;BME280_humidity;BME280_pressure;Samples;Min_cycle;Max_cycle;Signal;HPM_P1;HPM_P2
2023/12/17 00:00:46;;;;;;;5.33;3.60;;;;;;;2.17;89.24;97706.97;5029419;28;20183;-79
2023/12/17 00:03:11;;;;;;;6.67;4.03;;;;;;;2.21;89.06;97711.13;5020020;28;20691;-79
2023/12/17 00:05:37;;;;;;;10.03;3.80;;;;;;;2.21;89.00;97703.44;5007939;28;20219;-79
2023/12/17 00:08:02;;;;;;;7.90;4.50;;;;;;;2.22;88.91;97699.97;5025487;28;20210;-79
2023/12/17 00:10:27;;;;;;;7.30;4.03;;;;;;;2.26;88.72;97693.88;5027636;28;20325;-78
2023/12/17 00:12:53;;;;;;;7.37;4.10;;;;;;;2.25;89.46;97692.19;5026603;28;20192;-79
2023/12/17 00:15:18;;;;;;;11.47;4.37;;;;;;;2.25;89.10;97693.03;5010065;28;20248;-78
2023/12/17 00:17:43;;;;;;;6.50;3.80;;;;;;;2.32;88.40;97703.13;5030279;28;20211;-79
2023/12/17 00:20:09;;;;;;;7.07;4.13;;;;;;;2.29;88.26;97704.03;5023091;28;20626;-79
2023/12/17 00:22:34;;;;;;;6.10;4.17;;;;;;;2.24;88.29;97716.16;5030067;28;20194;-79
2023/12/17 00:25:00;;;;;;;7.43;3.97;;;;;;;2.19;88.86;97715.44;5018381;28;20251;-79
2023/12/17 00:27:25;;;;;;;6.90;4.40;;;;;;;2.09;89.75;97712.28;5023282;28;20187;-80
2023/12/17 00:29:50;;;;;;;7.57;4.60;;;;;;;2.21;88.92;97716.25;5019567;28;20209;-79
2023/12/17 00:32:16;;;;;;;8.30;4.87;;;;;;;2.24;88.92;97713.59;5030003;28;20191;-79
2023/12/17 00:34:41;;;;;;;8.37;4.50;;;;;;;2.24;88.58;97711.88;5038338;28;20203;-80
2023/12/17 00:37:06;;;;;;;7.03;4.40;;;;;;;2.22;88.99;97710.25;5022266;28;20202;-78
2023/12/17 00:39:32;;;;;;;8.20;4.57;;;;;;;2.14;88.18;97715.56;5013736;28;20211;-78
2023/12/17 00:41:58;;;;;;;8.27;4.17;;;;;;;2.04;87.84;97709.03;5021768;28;20193;-80
2023/12/17 00:44:23;;;;;;;10.90;4.87;;;;;;;2.01;88.36;97715.94;5022877;28;20191;-79
2023/12/17 00:46:48;;;;;;;8.43;4.57;;;;;;;1.95;88.39;97710.13;5028195;28;20201;-79
2023/12/17 00:49:13;;;;;;;7.63;4.93;;;;;;;1.90;88.68;97717.09;5026704;28;20195;-80
2023/12/17 00:51:39;;;;;;;7.57;4.10;;;;;;;1.83;88.84;97713.00;5027881;28;20195;-79
2023/12/17 00:54:04;;;;;;;5.63;4.00;;;;;;;1.84;88.68;97709.56;5019204;28;20190;-79
2023/12/17 00:56:30;;;;;;;7.47;4.50;;;;;;;1.81;88.87;97709.66;5027225;28;20214;-79
2023/12/17 00:58:55;;;;;;;6.73;4.10;;;;;;;1.79;88.93;97708.03;5017669;28;20211;-79
2023/12/17 01:01:20;;;;;;;8.60;4.03;;;;;;;1.76;88.62;97698.69;5026564;28;20278;-79
2023/12/17 01:03:46;;;;;;;5.60;4.30;;;;;;;1.70;89.43;97709.94;5018437;28;20656;-80
2023/12/17 01:06:11;;;;;;;5.37;3.57;;;;;;;1.68;89.12;97711.72;5028337;28;20214;-79
2023/12/17 01:08:36;;;;;;;5.80;3.57;;;;;;;1.68;89.47;97716.00;5029853;28;20186;-79
2023/12/17 01:11:02;;;;;;;6.17;3.47;;;;;;;1.70;89.16;97701.44;5026689;28;20666;-78
2023/12/17 01:13:27;;;;;;;3.93;3.50;;;;;;;1.69;89.46;97710.00;5019438;28;20656;-79
2023/12/17 01:15:53;;;;;;;6.40;3.43;;;;;;;1.64;89.27;97715.22;5024804;28;20213;-79
2023/12/17 01:18:18;;;;;;;7.00;3.67;;;;;;;1.64;88.93;97711.81;5019887;28;20227;-80
2023/12/17 01:20:43;;;;;;;6.43;3.73;;;;;;;1.65;89.11;97708.38;5024227;28;20199;-79
2023/12/17 01:23:09;;;;;;;5.87;3.80;;;;;;;1.59;89.13;97713.66;5028158;28;20641;-79
2023/12/17 01:25:35;;;;;;;5.90;3.83;;;;;;;1.59;89.12;97714.53;5028567;28;20722;-80
2023/12/17 01:28:01;;;;;;;5.17;3.43;;;;;;;1.55;88.93;97714.63;5017438;28;20266;-78
2023/12/17 01:30:26;;;;;;;4.53;2.97;;;;;;;1.59;89.08;97705.97;5021999;28;20218;-79
2023/12/17 01:32:51;;;;;;;3.93;2.90;;;;;;;1.55;89.41;97719.75;5030090;28;20189;-79
2023/12/17 01:35:17;;;;;;;3.53;3.10;;;;;;;1.53;89.60;97718.94;5024519;28;20206;-78
2023/12/17 01:37:42;;;;;;;4.80;3.20;;;;;;;1.52;89.69;97720.69;5018381;28;20275;-80
2023/12/17 01:40:08;;;;;;;8.00;3.90;;;;;;;1.50;89.88;97722.41;5029433;28;20559;-79
2023/12/17 01:42:33;;;;;;;7.03;3.13;;;;;;;1.52;89.09;97718.13;5025031;28;20224;-79
2023/12/17 01:44:59;;;;;;;5.37;3.27;;;;;;;1.49;89.59;97710.50;5007118;28;20217;-79
2023/12/17 01:47:24;;;;;;;8.13;4.03;;;;;;;1.49;89.58;97699.41;5005345;28;20194;-79
2023/12/17 01:49:50;;;;;;;8.20;4.50;;;;;;;1.47;89.95;97703.75;5027197;28;20277;-78
2023/12/17 01:52:15;;;;;;;7.93;4.00;;;;;;;1.46;89.63;97710.59;5001210;28;20257;-79
2023/12/17 01:54:41;;;;;;;6.47;3.97;;;;;;;1.48;89.78;97721.63;5016769;28;20227;-79
2023/12/17 01:57:06;;;;;;;9.70;3.87;;;;;;;1.46;89.87;97707.19;5012517;28;20252;-78
2023/12/17 01:59:32;;;;;;;7.70;3.20;;;;;;;1.39;90.38;97719.28;5026089;28;20273;-78
2023/12/17 02:01:58;;;;;;;7.30;3.27;;;;;;;1.36;90.10;97715.09;5028153;28;20268;-79
2023/12/17 02:04:23;;;;;;;6.40;3.43;;;;;;;1.37;90.46;97718.50;5017681;28;20253;-79
2023/12/17 02:06:48;;;;;;;8.00;3.43;;;;;;;1.36;89.96;97712.53;5032275;28;20324;-79
2023/12/17 02:09:14;;;;;;;8.83;3.83;;;;;;;1.38;90.30;97712.50;5021642;28;20632;-79
2023/12/17 02:11:39;;;;;;;6.53;3.70;;;;;;;1.34;90.23;97714.31;5027411;28;20253;-79
2023/12/17 02:14:04;;;;;;;4.33;3.93;;;;;;;1.28;90.73;97719.56;5020753;28;20265;-79
2023/12/17 02:16:30;;;;;;;6.13;3.63;;;;;;;1.32;90.02;97725.44;5010227;28;20298;-78
2023/12/17 02:18:58;;;;;;;6.47;3.37;;;;;;;1.31;90.15;97722.03;5022551;28;20230;-78
2023/12/17 02:21:24;;;;;;;6.37;3.17;;;;;;;1.26;90.69;97729.00;5013914;28;20249;-79
2023/12/17 02:23:49;;;;;;;5.90;3.47;;;;;;;1.30;90.33;97719.53;5026586;28;20595;-79
2023/12/17 02:26:15;;;;;;;6.10;4.10;;;;;;;1.24;90.35;97725.66;5015037;28;20282;-79
2023/12/17 02:28:41;;;;;;;8.80;4.80;;;;;;;1.26;90.28;97723.88;5026738;28;20190;-79
2023/12/17 02:31:06;;;;;;;6.37;4.00;;;;;;;1.26;90.17;97723.88;5030988;28;20643;-78
2023/12/17 02:33:31;;;;;;;4.93;3.53;;;;;;;1.26;90.44;97728.16;5028593;28;20562;-79
2023/12/17 02:35:57;;;;;;;5.07;3.50;;;;;;;1.27;90.54;97727.28;5021003;28;20296;-79
2023/12/17 02:38:22;;;;;;;5.87;3.27;;;;;;;1.27;90.52;97725.56;5005883;28;20218;-78
2023/12/17 02:40:47;;;;;;;5.83;3.83;;;;;;;1.24;91.11;97723.09;5028295;28;20190;-79
2023/12/17 02:43:13;;;;;;;5.43;3.33;;;;;;;1.31;90.98;97732.28;5025411;28;20202;-79
2023/12/17 02:45:38;;;;;;;7.77;3.67;;;;;;;1.36;90.75;97729.63;5026760;28;20218;-79
2023/12/17 02:48:04;;;;;;;4.47;3.50;;;;;;;1.41;90.43;97720.94;5024932;28;20716;-79
2023/12/17 02:50:29;;;;;;;5.63;3.50;;;;;;;1.48;90.15;97713.94;5027439;28;20273;-79
2023/12/17 02:52:54;;;;;;;8.13;3.90;;;;;;;1.46;90.32;97722.53;5023515;28;20183;-78
2023/12/17 02:55:20;;;;;;;7.83;3.87;;;;;;;1.40;90.13;97715.84;5019028;28;20274;-79
2023/12/17 02:57:45;;;;;;;6.23;3.87;;;;;;;1.41;90.34;97723.50;5032090;28;20206;-79
2023/12/17 03:00:11;;;;;;;9.30;3.67;;;;;;;1.38;89.64;97710.78;5031127;28;20273;-78
2023/12/17 03:02:36;;;;;;;5.63;3.77;;;;;;;1.36;90.17;97701.47;5027456;28;20241;-79
2023/12/17 03:05:02;;;;;;;6.57;3.63;;;;;;;1.33;90.24;97704.94;5020049;28;20203;-79
2023/12/17 03:07:29;;;;;;;6.93;3.77;;;;;;;1.35;90.32;97715.97;5031562;28;20191;-78
2023/12/17 03:09:55;;;;;;;6.97;4.07;;;;;;;1.36;90.65;97702.28;5036304;28;20185;-79
2023/12/17 03:12:20;;;;;;;6.20;3.90;;;;;;;1.37;90.90;97703.97;5026134;28;20191;-79
2023/12/17 03:14:46;;;;;;;7.53;3.67;;;;;;;1.35;90.46;97692.94;5028516;28;20233;-78
2023/12/17 03:17:11;;;;;;;7.57;3.73;;;;;;;1.39;90.35;97684.28;5026605;28;20207;-79
2023/12/17 03:19:36;;;;;;;5.13;3.47;;;;;;;1.44;90.50;97686.75;5023165;28;20226;-79
2023/12/17 03:22:02;;;;;;;10.97;4.13;;;;;;;1.42;90.34;97683.38;5013493;28;20194;-79
2023/12/17 03:24:27;;;;;;;5.70;3.53;;;;;;;1.46;90.37;97679.84;5012634;28;20233;-79
2023/12/17 03:26:53;;;;;;;6.33;3.57;;;;;;;1.49;90.51;97673.81;5031668;28;20189;-79
2023/12/17 03:29:18;;;;;;;5.63;3.80;;;;;;;1.44;90.50;97670.53;5022182;28;20240;-79
2023/12/17 03:31:44;;;;;;;8.40;4.07;;;;;;;1.42;90.18;97665.47;5031900;28;20194;-79
2023/12/17 03:34:10;;;;;;;5.63;3.57;;;;;;;1.47;90.78;97655.09;5026378;28;20225;-79
2023/12/17 03:36:35;;;;;;;5.90;3.87;;;;;;;1.44;90.60;97658.59;5028664;28;20249;-79
2023/12/17 03:39:02;;;;;;;6.13;3.77;;;;;;;1.37;90.28;97655.34;5019059;28;20244;-79
2023/12/17 03:41:28;;;;;;;6.53;3.60;;;;;;;1.32;90.22;97641.81;5028340;28;20198;-78
2023/12/17 03:43:55;;;;;;;10.80;3.90;;;;;;;1.30;90.47;97635.03;5026008;28;20567;-78
2023/12/17 03:46:22;;;;;;;6.83;3.77;;;;;;;1.29;90.58;97629.09;5014226;28;20331;-79
2023/12/17 03:48:47;;;;;;;6.80;3.77;;;;;;;1.33;90.71;97627.31;5024340;28;20202;-78
2023/12/17 03:51:13;;;;;;;8.80;4.13;;;;;;;1.41;90.43;97618.53;5028089;28;20658;-78
2023/12/17 03:53:38;;;;;;;6.53;3.80;;;;;;;1.46;90.99;97623.53;5020009;28;20262;-79
2023/12/17 03:56:11;;;;;;;8.90;4.00;;;;;;;1.55;91.13;97619.88;5018873;28;20719;-78
2023/12/17 03:58:37;;;;;;;8.33;3.73;;;;;;;1.60;90.82;97623.16;5018198;28;20716;-79
2023/12/17 04:01:04;;;;;;;4.60;3.13;;;;;;;1.64;90.69;97632.44;5028931;28;20197;-79
2023/12/17 04:03:29;;;;;;;4.30;3.70;;;;;;;1.71;90.55;97631.38;5024218;28;20203;-78
2023/12/17 04:05:56;;;;;;;6.17;3.87;;;;;;;1.71;90.60;97623.69;5026471;28;20209;-79
2023/12/17 04:08:21;;;;;;;6.33;3.00;;;;;;;1.76;90.56;97626.94;5028428;28;20191;-79
2023/12/17 04:10:46;;;;;;;5.13;3.60;;;;;;;1.81;90.97;97627.69;5037044;28;20384;-79
2023/12/17 04:13:12;;;;;;;6.53;3.47;;;;;;;1.85;90.92;97633.53;5008878;28;20560;-78
2023/12/17 04:15:37;;;;;;;5.40;3.23;;;;;;;1.82;90.33;97637.03;5030438;28;20632;-79
2023/12/17 04:18:03;;;;;;;4.40;3.50;;;;;;;1.87;90.22;97639.47;5024940;28;20701;-79
2023/12/17 04:20:28;;;;;;;7.87;3.60;;;;;;;1.86;90.42;97635.25;5018998;28;20294;-79
2023/12/17 04:22:53;;;;;;;5.37;4.23;;;;;;;1.83;90.08;97628.47;5027963;28;20186;-79
2023/12/17 04:25:19;;;;;;;5.40;4.30;;;;;;;1.83;90.39;97618.22;5010593;28;20531;-79
2023/12/17 04:27:44;;;;;;;6.50;3.50;;;;;;;1.77;90.65;97620.97;5030592;28;20723;-79
2023/12/17 04:30:10;;;;;;;4.50;2.60;;;;;;;1.79;90.78;97616.63;5017645;28;20194;-79
2023/12/17 04:32:36;;;;;;;3.10;2.30;;;;;;;1.77;91.43;97628.66;5028348;28;20700;-79
2023/12/17 04:35:03;;;;;;;4.47;2.80;;;;;;;1.81;91.42;97625.13;5025020;28;20206;-79
2023/12/17 04:37:29;;;;;;;7.50;2.80;;;;;;;1.79;91.10;97632.00;5019880;28;20269;-79
2023/12/17 04:39:54;;;;;;;3.87;2.67;;;;;;;1.79;91.13;97629.44;5021221;28;20336;-78
2023/12/17 04:42:19;;;;;;;3.80;2.70;;;;;;;1.90;90.36;97619.72;5030136;28;20187;-79
2023/12/17 04:44:44;;;;;;;6.43;2.43;;;;;;;1.93;90.19;97626.47;5023426;28;20300;-78
2023/12/17 04:47:10;;;;;;;3.87;2.20;;;;;;;1.89;90.63;97627.47;5023085;28;20234;-79
2023/12/17 04:49:36;;;;;;;4.77;2.60;;;;;;;1.94;90.21;97625.59;5024451;28;20193;-79
2023/12/17 04:52:01;;;;;;;6.70;2.60;;;;;;;2.07;90.06;97623.53;5007381;28;20668;-79
2023/12/17 04:54:26;;;;;;;3.77;2.10;;;;;;;2.11;89.71;97622.53;5015853;28;20190;-78
2023/12/17 04:56:54;;;;;;;3.13;1.97;;;;;;;2.14;89.55;97625.03;5026263;28;20185;-79
2023/12/17 04:59:20;;;;;;;3.03;2.23;;;;;;;2.17;89.89;97619.81;5028209;28;20211;-79
2023/12/17 05:01:46;;;;;;;2.57;2.10;;;;;;;2.20;89.48;97624.81;5027237;28;20198;-79
2023/12/17 05:04:11;;;;;;;3.77;2.60;;;;;;;2.22;89.04;97621.34;5017497;28;20223;-79
2023/12/17 05:06:36;;;;;;;5.80;2.27;;;;;;;2.35;89.06;97614.13;5022909;28;20293;-79
2023/12/17 05:09:02;;;;;;;3.43;2.30;;;;;;;2.40;89.11;97609.69;5025030;28;20193;-79
2023/12/17 05:11:27;;;;;;;4.10;2.70;;;;;;;2.46;87.62;97617.19;5025149;28;20199;-79
2023/12/17 05:13:52;;;;;;;2.83;2.47;;;;;;;2.49;87.95;97608.56;5020495;28;20190;-79
2023/12/17 05:16:18;;;;;;;2.57;1.90;;;;;;;2.49;87.83;97609.41;5026216;28;20233;-79
2023/12/17 05:18:43;;;;;;;4.03;2.20;;;;;;;2.46;88.20;97606.91;5023513;28;20207;-79
2023/12/17 05:21:08;;;;;;;3.50;2.17;;;;;;;2.43;88.19;97608.75;5021253;28;20304;-78
2023/12/17 05:23:34;;;;;;;2.10;1.90;;;;;;;2.46;87.20;97595.81;5026450;28;20208;-79
2023/12/17 05:25:59;;;;;;;3.27;2.10;;;;;;;2.27;88.16;97596.41;5016220;28;20221;-79
2023/12/17 05:28:24;;;;;;;3.50;3.07;;;;;;;2.32;87.81;97591.16;5012071;28;20187;-79
2023/12/17 05:30:50;;;;;;;4.40;2.90;;;;;;;2.35;87.65;97588.47;5018588;28;20322;-78
2023/12/17 05:33:15;;;;;;;2.50;2.30;;;;;;;2.44;86.65;97589.91;5028037;28;20210;-79
2023/12/17 05:35:42;;;;;;;2.70;2.30;;;;;;;2.43;87.16;97588.25;5026891;28;20289;-79
2023/12/17 05:38:07;;;;;;;2.07;1.87;;;;;;;2.38;87.34;97584.97;5021524;28;20700;-79
2023/12/17 05:40:32;;;;;;;3.97;2.20;;;;;;;2.45;86.68;97587.28;5006018;28;20198;-80
2023/12/17 05:42:59;;;;;;;4.10;2.17;;;;;;;2.29;87.26;97583.53;5020807;28;20197;-79
2023/12/17 05:45:24;;;;;;;2.07;1.87;;;;;;;2.30;87.29;97582.66;5019839;28;20214;-79
2023/12/17 05:47:49;;;;;;;2.90;2.00;;;;;;;2.43;86.59;97583.13;5023164;28;20197;-79
2023/12/17 05:50:15;;;;;;;3.97;2.30;;;;;;;2.53;86.32;97589.63;5023985;28;20222;-79
2023/12/17 05:52:40;;;;;;;2.00;1.80;;;;;;;2.40;86.06;97589.19;5020279;28;20692;-79
2023/12/17 05:55:07;;;;;;;1.93;1.67;;;;;;;2.39;86.42;97595.19;5012376;28;20600;-79
2023/12/17 05:57:33;;;;;;;2.87;1.70;;;;;;;2.44;85.42;97589.91;5007301;28;20233;-79
2023/12/17 05:59:58;;;;;;;3.27;1.80;;;;;;;2.47;85.56;97593.25;5030440;28;20696;-79
2023/12/17 06:02:24;;;;;;;2.73;1.87;;;;;;;2.43;85.79;97590.81;5029538;28;20218;-79
2023/12/17 06:04:49;;;;;;;2.20;2.00;;;;;;;2.37;85.94;97589.25;5004712;28;20217;-79
2023/12/17 06:07:14;;;;;;;6.50;2.00;;;;;;;2.34;86.03;97603.91;5029249;28;20562;-79
2023/12/17 06:09:40;;;;;;;3.10;2.20;;;;;;;2.26;86.30;97604.97;5029610;28;20187;-79
2023/12/17 06:12:06;;;;;;;3.00;2.50;;;;;;;2.14;85.57;97610.50;5027895;28;20183;-80
2023/12/17 06:14:31;;;;;;;3.70;2.60;;;;;;;1.96;84.95;97618.72;5022989;28;20209;-79
2023/12/17 06:16:57;;;;;;;2.57;2.37;;;;;;;1.87;85.97;97619.81;5034138;28;20186;-79
2023/12/17 06:19:23;;;;;;;4.73;2.87;;;;;;;1.85;86.12;97626.69;5023615;28;20210;-79
2023/12/17 06:21:48;;;;;;;6.00;3.70;;;;;;;1.77;86.58;97628.66;5029151;28;20194;-79
2023/12/17 06:24:14;;;;;;;6.37;4.23;;;;;;;1.70;86.59;97637.38;5027127;28;20640;-79
2023/12/17 06:26:39;;;;;;;17.33;9.10;;;;;;;1.65;87.13;97642.63;5031904;28;20266;-79
2023/12/17 06:29:04;;;;;;;14.80;8.70;;;;;;;1.60;87.33;97633.41;5025350;28;20266;-79
2023/12/17 06:31:30;;;;;;;12.73;6.93;;;;;;;1.57;87.29;97641.16;5024004;28;20324;-78
2023/12/17 06:33:56;;;;;;;10.90;6.37;;;;;;;1.53;87.43;97637.00;5032257;28;20221;-77
2023/12/17 06:36:22;;;;;;;10.00;5.90;;;;;;;1.51;87.77;97642.19;5028202;28;20257;-79
2023/12/17 06:38:47;;;;;;;7.87;5.07;;;;;;;1.51;87.49;97641.34;5024277;28;20210;-79
2023/12/17 06:41:13;;;;;;;8.77;6.77;;;;;;;1.49;87.72;97637.97;5006485;28;20200;-79
2023/12/17 06:43:42;;;;;;;9.67;4.97;;;;;;;1.51;87.75;97646.47;5029183;28;20187;-79
2023/12/17 06:46:07;;;;;;;14.53;6.80;;;;;;;1.50;88.06;97639.63;5023606;28;20233;-80
2023/12/17 06:48:34;;;;;;;16.87;10.17;;;;;;;1.49;87.67;97627.72;5014937;28;20198;-79
2023/12/17 06:51:03;;;;;;;24.87;12.40;;;;;;;1.50;88.41;97631.94;5030519;28;20209;-79
2023/12/17 06:53:29;;;;;;;16.27;8.80;;;;;;;1.53;88.33;97629.34;5019873;28;20183;-79
2023/12/17 06:55:54;;;;;;;15.27;8.20;;;;;;;1.53;88.37;97624.22;5024287;28;20284;-79
2023/12/17 06:58:20;;;;;;;9.60;6.20;;;;;;;1.59;88.20;97624.88;5031287;28;20975;-79
2023/12/17 07:00:45;;;;;;;7.07;4.47;;;;;;;1.63;88.38;97625.63;5033809;28;20366;-79
2023/12/17 07:03:11;;;;;;;7.30;3.47;;;;;;;1.72;88.04;97625.38;5009395;28;20211;-79
2023/12/17 07:05:36;;;;;;;5.70;3.33;;;;;;;1.71;88.02;97623.69;5019017;28;20208;-78
2023/12/17 07:08:01;;;;;;;4.60;2.90;;;;;;;1.73;87.53;97633.91;5032552;28;20205;-78
2023/12/17 07:10:27;;;;;;;4.43;2.33;;;;;;;1.70;87.94;97627.16;5025417;28;20186;-78
2023/12/17 07:12:52;;;;;;;3.97;2.70;;;;;;;1.64;87.78;97629.88;5029825;28;20189;-78
2023/12/17 07:15:18;;;;;;;4.33;2.50;;;;;;;1.62;88.26;97629.91;5008539;28;20222;-79
2023/12/17 07:17:44;;;;;;;3.67;2.60;;;;;;;1.60;87.95;97626.56;5031743;28;20194;-79
2023/12/17 07:20:10;;;;;;;4.90;2.87;;;;;;;1.54;88.24;97626.72;5027545;28;20191;-79
2023/12/17 07:22:36;;;;;;;3.77;2.83;;;;;;;1.57;88.41;97631.75;5028397;28;20204;-79
2023/12/17 07:25:02;;;;;;;4.87;3.50;;;;;;;1.61;88.01;97630.81;5028768;28;20209;-79
2023/12/17 07:27:27;;;;;;;3.83;3.13;;;;;;;1.58;88.60;97632.59;5035107;28;20182;-82
2023/12/17 07:29:53;;;;;;;4.20;3.10;;;;;;;1.60;87.74;97628.28;5029931;28;20286;-84
2023/12/17 07:32:18;;;;;;;3.20;2.90;;;;;;;1.60;88.31;97624.00;5024652;28;20191;-86
2023/12/17 07:34:43;;;;;;;4.00;2.43;;;;;;;1.68;88.38;97623.78;5028203;28;20203;-81
2023/12/17 07:37:09;;;;;;;4.57;2.70;;;;;;;1.67;88.04;97615.25;5032430;28;20193;-81
2023/12/17 07:39:34;;;;;;;4.40;2.97;;;;;;;1.72;88.20;97619.41;5020365;28;20211;-82
2023/12/17 07:41:59;;;;;;;6.10;3.20;;;;;;;1.73;87.95;97615.97;5027824;28;20191;-82
2023/12/17 07:44:27;;;;;;;4.47;3.60;;;;;;;1.69;88.29;97621.19;5030116;28;20183;-82
2023/12/17 07:46:52;;;;;;;5.60;3.70;;;;;;;1.76;88.25;97621.81;5026581;28;20190;-81
2023/12/17 07:49:18;;;;;;;3.47;3.10;;;;;;;1.85;88.68;97619.00;5019560;28;20302;-81
2023/12/17 07:51:44;;;;;;;3.60;2.60;;;;;;;1.91;88.21;97616.28;5029865;28;20789;-81
2023/12/17 07:54:09;;;;;;;3.80;3.17;;;;;;;1.97;88.36;97616.09;5022395;28;20193;-82
2023/12/17 07:56:35;;;;;;;5.03;3.37;;;;;;;1.97;88.11;97616.09;5022785;28;20692;-81
2023/12/17 07:59:00;;;;;;;3.40;3.00;;;;;;;1.98;87.87;97612.66;5023391;28;20276;-81
2023/12/17 08:01:32;;;;;;;3.30;3.00;;;;;;;2.05;87.92;97620.19;5029433;28;20217;-82
2023/12/17 08:03:57;;;;;;;4.80;3.20;;;;;;;2.16;87.81;97620.69;5017933;28;20274;-82
2023/12/17 08:06:26;;;;;;;4.30;3.13;;;;;;;2.22;87.72;97612.81;5019438;28;20281;-83
2023/12/17 08:08:56;;;;;;;4.23;2.80;;;;;;;2.30;87.59;97605.75;5030882;28;20182;-82
2023/12/17 08:11:21;;;;;;;2.50;2.30;;;;;;;2.47;87.50;97611.19;5027675;28;20257;-82
2023/12/17 08:13:47;;;;;;;8.50;2.43;;;;;;;2.63;87.00;97613.25;5008742;28;20210;-82
2023/12/17 08:16:12;;;;;;;2.60;2.07;;;;;;;2.80;86.56;97616.13;5026763;28;20229;-83
2023/12/17 08:18:37;;;;;;;2.20;1.90;;;;;;;2.89;86.23;97612.41;5012970;28;20207;-82
2023/12/17 08:21:03;;;;;;;2.47;2.10;;;;;;;2.91;85.82;97601.19;5015955;28;20269;-82
2023/12/17 08:23:28;;;;;;;3.77;2.17;;;;;;;2.98;86.05;97612.94;5023876;28;20185;-82
2023/12/17 08:25:54;;;;;;;2.87;2.13;;;;;;;3.00;85.47;97608.59;5032459;28;20205;-82
2023/12/17 08:28:20;;;;;;;2.00;1.80;;;;;;;3.06;85.86;97616.09;5028955;28;20568;-82
2023/12/17 08:30:46;;;;;;;3.00;2.20;;;;;;;3.12;85.76;97612.50;5020226;28;20560;-83
2023/12/17 08:33:12;;;;;;;2.67;2.07;;;;;;;3.22;86.02;97613.03;5028753;28;20270;-82
2023/12/17 08:35:38;;;;;;;29.87;15.13;;;;;;;3.23;84.99;97615.53;5011310;28;20289;-83
2023/12/17 08:38:06;;;;;;;19.67;13.03;;;;;;;3.16;85.19;97614.06;5016700;28;20210;-83
2023/12/17 08:40:33;;;;;;;10.97;8.17;;;;;;;3.27;85.20;97616.25;5012273;28;20199;-82
2023/12/17 08:42:58;;;;;;;9.27;5.80;;;;;;;3.36;85.06;97613.41;5035288;28;20181;-79
2023/12/17 08:45:24;;;;;;;5.57;4.20;;;;;;;3.36;84.63;97613.41;5023773;28;20198;-80
2023/12/17 08:47:50;;;;;;;5.00;4.10;;;;;;;3.34;84.57;97615.16;5027769;28;20193;-79
2023/12/17 08:50:15;;;;;;;5.50;3.57;;;;;;;3.36;84.71;97621.09;5022607;28;21137;-80
2023/12/17 08:52:41;;;;;;;5.20;3.80;;;;;;;3.41;85.06;97622.59;5034573;28;20187;-79
2023/12/17 08:55:06;;;;;;;4.37;3.50;;;;;;;3.51;84.58;97615.41;5033730;28;20722;-79
2023/12/17 08:57:32;;;;;;;4.10;3.60;;;;;;;3.59;84.24;97615.97;5045476;28;20194;-78
2023/12/17 08:59:57;;;;;;;9.57;7.27;;;;;;;3.71;84.54;97614.72;5051472;28;20267;-79
2023/12/17 09:02:22;;;;;;;13.37;9.23;;;;;;;3.78;83.87;97611.03;5041971;28;20253;-79
2023/12/17 09:04:51;;;;;;;10.90;7.73;;;;;;;3.89;83.65;97618.38;5006646;28;20206;-83
2023/12/17 09:07:16;;;;;;;13.43;10.47;;;;;;;3.98;83.39;97615.44;5027630;28;20182;-81
2023/12/17 09:09:42;;;;;;;10.27;9.13;;;;;;;4.09;82.95;97615.03;5030794;28;20701;-80
2023/12/17 09:12:08;;;;;;;10.93;9.17;;;;;;;4.14;82.12;97619.09;5026121;28;20903;-79
2023/12/17 09:14:35;;;;;;;9.93;8.93;;;;;;;4.23;82.71;97618.75;5022041;28;20195;-79
2023/12/17 09:17:00;;;;;;;10.90;7.10;;;;;;;4.30;82.12;97615.97;5024770;28;20183;-79
2023/12/17 09:19:25;;;;;;;12.17;5.63;;;;;;;4.37;82.12;97614.84;5010621;28;20348;-79
2023/12/17 09:21:51;;;;;;;5.87;5.27;;;;;;;4.48;81.57;97610.09;5006968;28;20193;-79
2023/12/17 09:24:16;;;;;;;6.17;4.93;;;;;;;4.52;80.90;97615.06;5029056;28;20210;-80
2023/12/17 09:26:42;;;;;;;6.00;4.47;;;;;;;4.63;80.40;97618.97;5030462;28;20692;-79
2023/12/17 09:29:07;;;;;;;8.50;4.73;;;;;;;4.75;80.64;97615.88;5025783;28;20194;-79
2023/12/17 09:31:32;;;;;;;6.07;4.53;;;;;;;4.82;79.59;97615.59;5018481;28;20196;-79
2023/12/17 09:33:58;;;;;;;5.40;4.90;;;;;;;4.96;78.77;97616.78;5031782;28;20694;-79
2023/12/17 09:36:25;;;;;;;7.23;5.13;;;;;;;5.05;77.91;97617.25;5025643;28;20244;-78
2023/12/17 09:38:50;;;;;;;5.40;4.23;;;;;;;5.12;78.15;97612.66;5025921;28;20225;-88
2023/12/17 09:41:15;;;;;;;9.53;3.80;;;;;;;5.21;77.66;97614.00;5014826;28;20201;-79
2023/12/17 09:43:43;;;;;;;5.50;3.30;;;;;;;5.30;77.87;97614.47;5019683;28;20279;-77
2023/12/17 09:46:09;;;;;;;6.17;3.10;;;;;;;5.34;77.08;97621.16;5022187;28;20261;-79
2023/12/17 09:48:34;;;;;;;5.10;3.20;;;;;;;5.45;77.14;97614.72;5025197;28;20276;-79
2023/12/17 09:51:01;;;;;;;4.97;3.10;;;;;;;5.52;76.59;97611.81;5009943;28;20222;-79
2023/12/17 09:53:28;;;;;;;7.30;3.17;;;;;;;5.53;75.32;97605.75;5031271;28;20272;-79
2023/12/17 09:55:54;;;;;;;5.07;2.97;;;;;;;5.61;76.06;97613.16;5020485;28;20206;-78
2023/12/17 09:58:19;;;;;;;4.87;2.90;;;;;;;5.73;75.97;97617.75;5008585;28;20238;-78
2023/12/17 10:00:45;;;;;;;6.07;4.03;;;;;;;5.82;73.91;97613.94;5026619;28;20270;-78
2023/12/17 10:03:12;;;;;;;7.97;4.30;;;;;;;5.83;73.85;97613.03;5025934;28;20602;-78
2023/12/17 10:05:37;;;;;;;13.07;6.00;;;;;;;5.96;73.54;97609.03;5011545;28;20199;-79
2023/12/17 10:08:03;;;;;;;9.80;4.53;;;;;;;5.93;70.98;97610.03;5030568;28;20173;-79
2023/12/17 10:10:30;;;;;;;13.70;6.17;;;;;;;6.11;70.31;97612.69;5031329;28;20186;-79
2023/12/17 10:12:55;;;;;;;12.03;5.67;;;;;;;6.13;68.69;97611.69;5026708;28;20185;-79
2023/12/17 10:15:20;;;;;;;9.20;3.93;;;;;;;6.11;68.01;97607.53;5019836;28;20296;-79
2023/12/17 10:17:47;;;;;;;8.80;3.53;;;;;;;6.06;68.15;97604.31;5024840;28;20186;-77
2023/12/17 10:20:17;;;;;;;10.00;3.50;;;;;;;6.11;66.88;97592.88;5024657;28;20194;-81
2023/12/17 10:23:09;;;;;;;6.43;3.00;;;;;;;6.37;65.97;97589.09;5024276;28;20882;-79
2023/12/17 10:25:34;;;;;;;9.93;3.80;;;;;;;6.00;66.32;97587.34;5032121;28;20222;-78
2023/12/17 10:28:00;;;;;;;11.07;4.07;;;;;;;6.25;66.31;97581.91;5029977;28;20194;-79
2023/12/17 10:30:29;;;;;;;6.40;3.50;;;;;;;6.25;66.13;97569.00;5013142;28;20182;-79
2023/12/17 10:32:55;;;;;;;8.03;3.93;;;;;;;6.40;66.18;97576.03;5026529;28;20215;-79
2023/12/17 10:35:25;;;;;;;10.83;3.50;;;;;;;6.51;65.47;97572.94;5017846;28;20199;-78
2023/12/17 10:37:56;;;;;;;8.70;3.20;;;;;;;6.52;65.51;97562.53;5027844;28;20568;-79
2023/12/17 10:40:23;;;;;;;6.87;3.63;;;;;;;6.45;65.26;97561.19;5017675;28;20174;-79
2023/12/17 10:42:49;;;;;;;9.93;4.83;;;;;;;6.54;65.19;97557.31;5011975;28;20194;-78
2023/12/17 10:45:19;;;;;;;13.10;8.00;;;;;;;6.48;65.67;97563.59;5017765;28;20215;-79
2023/12/17 10:47:46;;;;;;;8.13;3.73;;;;;;;6.70;65.76;97559.97;5019427;28;20678;-79
2023/12/17 10:50:11;;;;;;;7.27;3.30;;;;;;;6.69;64.85;97563.47;5023016;28;20266;-79
2023/12/17 10:52:39;;;;;;;9.57;3.77;;;;;;;6.78;65.07;97555.28;5032107;28;20708;-79
2023/12/17 10:55:05;;;;;;;8.83;3.13;;;;;;;6.78;65.15;97555.28;5016922;28;20207;-79
2023/12/17 10:57:34;;;;;;;8.57;3.20;;;;;;;6.84;65.11;97549.81;5017226;28;20269;-78
2023/12/17 11:00:00;;;;;;;6.23;2.77;;;;;;;6.85;65.08;97548.06;5015587;28;20194;-79
2023/12/17 11:02:26;;;;;;;7.43;3.00;;;;;;;6.93;64.76;97546.78;5030754;28;20232;-79
2023/12/17 11:04:51;;;;;;;5.80;2.87;;;;;;;7.00;65.24;97547.31;5025480;28;20679;-80
2023/12/17 11:07:19;;;;;;;7.60;3.00;;;;;;;6.99;65.80;97549.06;5023518;28;20206;-79
2023/12/17 11:09:44;;;;;;;4.83;2.63;;;;;;;7.04;65.51;97549.66;5033485;28;20314;-80
2023/12/17 11:12:11;;;;;;;7.40;2.80;;;;;;;7.09;65.22;97537.34;5027553;28;20213;-80
2023/12/17 11:14:36;;;;;;;8.37;2.50;;;;;;;7.15;64.82;97541.34;5030748;28;20533;-79
2023/12/17 11:17:07;;;;;;;6.50;2.63;;;;;;;7.18;65.40;97540.38;5030801;28;20231;-79
2023/12/17 11:19:32;;;;;;;6.97;4.10;;;;;;;7.27;65.63;97534.75;5029938;28;20614;-79
2023/12/17 11:21:57;;;;;;;5.53;3.33;;;;;;;7.34;64.47;97536.09;5025949;28;20182;-79
2023/12/17 11:24:23;;;;;;;10.23;4.50;;;;;;;7.48;65.19;97532.78;5025505;28;20206;-80
2023/12/17 11:26:48;;;;;;;5.43;3.07;;;;;;;7.50;64.70;97526.63;5034454;28;20668;-77
2023/12/17 11:29:42;;;;;;;6.73;3.93;;;;;;;7.56;64.91;97520.28;5030491;28;20183;-77
2023/12/17 11:32:08;;;;;;;6.20;2.80;;;;;;;7.62;64.16;97518.22;5027168;28;20179;-79
2023/12/17 11:34:36;;;;;;;9.73;4.33;;;;;;;7.58;64.05;97521.88;5038028;28;20183;-79